Time;durP1;ratioP1;P1;durP2;ratioP2;P2;SDS_P1;SDS_P2;PMS_P1;PMS_P2;Temp;Humidity;BMP_temperature;BMP_pressure;BME280_temperature;BME280_humidity;BME280_pressure;Samples;Min_cycle;Max_cycle;Signal;HPM_P1;HPM_P2
2022/05/27 00:02:17;;;;;;;15.93;2.40;;;14.50;99.90;;;;;;5106706;28;20500;-83
2022/05/27 00:04:43;;;;;;;9.77;2.45;;;14.50;99.90;;;;;;5089800;28;20492;-82
2022/05/27 00:07:08;;;;;;;15.45;2.38;;;14.40;99.90;;;;;;5105458;28;20508;-83
2022/05/27 00:09:34;;;;;;;12.73;2.10;;;14.40;99.90;;;;;;5106044;28;20046;-83
2022/05/27 00:12:00;;;;;;;10.05;1.95;;;14.40;99.90;;;;;;5107185;28;20094;-83
2022/05/27 00:14:26;;;;;;;10.05;2.92;;;14.30;99.90;;;;;;5107064;28;20126;-83
2022/05/27 00:16:51;;;;;;;9.52;2.55;;;14.80;99.90;;;;;;5088681;28;20047;-82
2022/05/27 00:19:20;;;;;;;12.38;2.50;;;14.20;99.90;;;;;;5104802;28;20096;-83
2022/05/27 00:21:46;;;;;;;15.25;3.60;;;14.20;99.90;;;;;;5105991;28;20496;-83
2022/05/27 00:24:12;;;;;;;12.25;2.33;;;14.90;99.90;;;;;;5105045;28;20081;-83
2022/05/27 00:26:37;;;;;;;13.07;2.40;;;15.10;99.90;;;;;;5105955;28;20564;-83
2022/05/27 00:29:03;;;;;;;10.23;1.63;;;14.10;99.90;;;;;;5105113;28;20142;-83
2022/05/27 00:31:29;;;;;;;9.98;1.90;;;14.10;99.90;;;;;;5106877;28;20089;-83
2022/05/27 00:33:55;;;;;;;7.65;2.15;;;14.00;99.90;;;;;;5105280;28;20075;-83
2022/05/27 00:36:21;;;;;;;9.65;2.40;;;13.90;99.90;;;;;;5106153;28;20365;-83
2022/05/27 00:38:46;;;;;;;14.13;2.28;;;13.90;99.90;;;;;;5106407;28;20063;-82
2022/05/27 00:41:13;;;;;;;10.80;2.15;;;13.90;99.90;;;;;;5108670;28;20506;-83
2022/05/27 00:43:40;;;;;;;12.23;2.20;;;13.90;99.90;;;;;;5112142;28;20043;-84
2022/05/27 00:46:20;;;;;;;12.48;2.03;;;14.80;99.90;;;;;;5109401;28;20055;-83
2022/05/27 00:48:50;;;;;;;14.30;2.55;;;13.80;99.90;;;;;;5108439;28;20039;-83
2022/05/27 00:51:20;;;;;;;17.05;3.53;;;13.80;99.90;;;;;;5088879;28;20039;-83
2022/05/27 00:53:56;;;;;;;12.85;2.22;;;13.70;99.90;;;;;;5087467;28;20054;-83
2022/05/27 00:56:24;;;;;;;13.63;2.65;;;13.70;99.90;;;;;;5105573;28;20154;-83
2022/05/27 00:58:59;;;;;;;13.88;2.72;;;14.80;99.90;;;;;;5105888;27;20047;-83
2022/05/27 01:01:26;;;;;;;15.70;2.40;;;13.60;99.90;;;;;;5106397;28;20079;-83
2022/05/27 01:03:54;;;;;;;10.68;2.10;;;13.60;99.90;;;;;;5104611;28;20475;-83
2022/05/27 01:06:20;;;;;;;13.50;2.00;;;13.60;99.90;;;;;;5104521;28;20071;-83
2022/05/27 01:08:46;;;;;;;12.00;1.70;;;13.60;99.90;;;;;;5106545;28;20133;-83
2022/05/27 01:11:30;;;;;;;15.02;2.13;;;13.50;99.90;;;;;;5105311;28;20120;-83
2022/05/27 01:14:16;;;;;;;8.68;2.35;;;13.40;99.90;;;;;;5106218;28;20515;-83
2022/05/27 01:16:49;;;;;;;9.23;1.80;;;13.40;99.90;;;;;;5106417;28;20487;-83
2022/05/27 01:22:40;;;;;;;14.05;2.63;;;13.30;99.90;;;;;;5074741;28;20043;-84
2022/05/27 01:25:28;;;;;;;13.52;2.88;;;13.10;99.90;;;;;;5104730;28;20039;-83
2022/05/27 01:28:00;;;;;;;12.38;2.70;;;13.20;99.90;;;;;;5103737;28;20130;-83
2022/05/27 01:30:30;;;;;;;13.90;2.20;;;13.20;99.90;;;;;;5106328;28;20036;-83
2022/05/27 01:33:04;;;;;;;11.82;2.00;;;13.60;99.90;;;;;;5104848;28;20043;-83
2022/05/27 01:36:02;;;;;;;8.15;1.88;;;13.10;99.90;;;;;;5087962;28;20050;-83
2022/05/27 01:38:41;;;;;;;13.57;1.60;;;13.10;99.90;;;;;;5115560;28;20087;-83
2022/05/27 01:41:09;;;;;;;10.25;1.85;;;13.00;99.90;;;;;;5099314;28;20035;-83
2022/05/27 01:43:46;;;;;;;12.57;1.83;;;12.90;99.90;;;;;;5113091;28;20035;-83
2022/05/27 01:46:19;;;;;;;13.55;1.70;;;12.90;99.90;;;;;;5104423;28;20058;-83
2022/05/27 01:49:01;;;;;;;11.77;1.95;;;12.90;99.90;;;;;;5104201;28;20396;-83
2022/05/27 01:51:40;;;;;;;10.68;1.90;;;12.80;99.90;;;;;;5105610;28;20495;-83
2022/05/27 01:54:15;;;;;;;14.25;1.83;;;12.80;99.90;;;;;;5104465;28;20054;-83
2022/05/27 01:56:58;;;;;;;7.70;1.50;;;12.70;99.90;;;;;;5104099;28;20051;-83
2022/05/27 01:59:35;;;;;;;7.28;1.70;;;12.70;99.90;;;;;;5105888;28;20054;-83
2022/05/27 02:02:11;;;;;;;13.20;2.47;;;12.60;99.90;;;;;;5103103;28;20044;-83
2022/05/27 02:04:47;;;;;;;10.10;1.67;;;12.60;99.90;;;;;;5104182;28;20051;-83
2022/05/27 02:07:31;;;;;;;9.60;1.45;;;12.50;99.90;;;;;;5103009;28;20462;-83
2022/05/27 02:10:02;;;;;;;6.07;1.33;;;12.50;99.90;;;;;;5103197;28;20097;-84
2022/05/27 02:12:36;;;;;;;7.57;1.27;;;13.40;99.90;;;;;;5104439;28;20122;-84
2022/05/27 02:15:08;;;;;;;11.02;1.77;;;13.30;99.90;;;;;;5104103;28;20461;-83
2022/05/27 02:17:41;;;;;;;10.35;1.75;;;11.40;99.90;;;;;;5105881;28;20480;-84
2022/05/27 02:20:19;;;;;;;6.32;1.45;;;12.40;99.90;;;;;;5105925;28;20048;-84
2022/05/27 02:22:57;;;;;;;13.10;1.63;;;13.50;99.90;;;;;;5110033;28;20057;-84
2022/05/27 02:25:34;;;;;;;8.25;1.58;;;12.30;99.90;;;;;;5110070;28;20057;-84
2022/05/27 02:28:08;;;;;;;11.93;1.65;;;12.30;99.90;;;;;;5088835;28;20036;-84
2022/05/27 02:30:36;;;;;;;12.02;1.48;;;12.20;99.90;;;;;;5104818;28;20369;-84
2022/05/27 02:36:00;;;;;;;8.43;1.85;;;12.20;99.90;;;;;;5103322;28;20400;-84
2022/05/27 02:38:27;;;;;;;10.15;1.58;;;12.10;99.90;;;;;;5105660;28;20047;-84
2022/05/27 02:41:29;;;;;;;7.90;1.30;;;12.10;99.90;;;;;;5102612;28;20050;-83
2022/05/27 02:44:14;;;;;;;9.50;1.70;;;12.00;99.90;;;;;;5104013;28;20132;-83
2022/05/27 02:47:04;;;;;;;10.68;1.65;;;12.00;99.90;;;;;;5105330;28;20044;-83
2022/05/27 02:49:40;;;;;;;9.57;2.13;;;12.00;99.90;;;;;;5102527;28;20069;-83
2022/05/27 02:52:26;;;;;;;13.02;2.22;;;12.00;99.90;;;;;;5103712;28;20075;-83
2022/05/27 02:55:05;;;;;;;6.80;1.67;;;11.90;99.90;;;;;;5105116;28;20157;-84
2022/05/27 02:57:42;;;;;;;9.20;1.92;;;11.90;99.90;;;;;;5103883;28;20553;-84
2022/05/27 03:00:23;;;;;;;6.78;1.35;;;11.90;99.90;;;;;;5103624;28;20043;-84
2022/05/27 03:02:50;;;;;;;6.45;1.75;;;11.80;99.90;;;;;;5102760;28;20039;-84
2022/05/27 03:05:18;;;;;;;5.47;1.40;;;11.90;99.90;;;;;;5104443;28;20075;-84
2022/05/27 03:08:03;;;;;;;10.10;1.67;;;12.00;99.90;;;;;;5104638;28;20042;-84
2022/05/27 03:11:00;;;;;;;6.85;1.63;;;11.70;99.90;;;;;;5102794;28;20403;-84
2022/05/27 03:13:50;;;;;;;11.07;1.83;;;11.70;99.90;;;;;;5103849;28;20350;-83
2022/05/27 03:16:24;;;;;;;13.35;1.55;;;11.70;99.90;;;;;;5104766;28;20050;-83
2022/05/27 03:19:30;;;;;;;10.27;1.75;;;11.60;99.90;;;;;;5102175;28;20047;-83
2022/05/27 03:22:23;;;;;;;11.25;1.45;;;11.60;99.90;;;;;;5105053;28;20051;-82
2022/05/27 03:25:18;;;;;;;11.77;1.67;;;11.60;99.90;;;;;;5106772;28;20048;-83
2022/05/27 03:28:17;;;;;;;8.57;2.00;;;11.50;99.90;;;;;;5072002;28;20123;-83
2022/05/27 03:30:47;;;;;;;6.32;1.38;;;11.50;99.90;;;;;;5110325;28;20492;-83
2022/05/27 03:33:20;;;;;;;7.63;2.03;;;11.50;99.90;;;;;;5112014;28;20043;-83
2022/05/27 03:36:11;;;;;;;10.52;1.63;;;12.60;99.90;;;;;;5110379;28;20432;-83
2022/05/27 03:38:59;;;;;;;6.53;1.35;;;11.50;99.90;;;;;;5110772;28;20332;-83
2022/05/27 03:41:28;;;;;;;13.23;1.52;;;11.50;99.90;;;;;;5111297;28;20039;-83
2022/05/27 03:43:54;;;;;;;7.30;1.42;;;11.90;99.90;;;;;;5110432;28;20118;-83
2022/05/27 03:46:32;;;;;;;5.75;1.10;;;11.50;99.90;;;;;;5110592;28;20036;-83
2022/05/27 03:48:58;;;;;;;12.05;1.30;;;11.60;99.90;;;;;;5109062;28;20044;-82
2022/05/27 03:51:30;;;;;;;8.80;1.60;;;11.70;99.90;;;;;;5111617;28;20050;-83
2022/05/27 03:54:05;;;;;;;11.35;1.95;;;11.60;99.90;;;;;;5110723;28;20036;-83
2022/05/27 03:56:37;;;;;;;7.05;1.45;;;11.70;99.90;;;;;;5110598;28;20557;-83
2022/05/27 03:59:05;;;;;;;10.00;1.30;;;11.70;99.90;;;;;;5113291;28;20043;-83
2022/05/27 04:01:33;;;;;;;7.70;1.70;;;12.00;99.90;;;;;;5113563;28;20036;-83
2022/05/27 04:04:02;;;;;;;7.72;1.67;;;11.80;99.90;;;;;;5127290;28;20052;-83
2022/05/27 04:06:28;;;;;;;8.80;1.70;;;11.80;99.90;;;;;;5108393;28;20079;-83
2022/05/27 04:08:55;;;;;;;8.38;0.95;;;12.30;99.90;;;;;;5113551;28;20039;-83
2022/05/27 04:11:21;;;;;;;14.45;1.85;;;12.30;99.90;;;;;;5106451;28;20044;-83
2022/05/27 04:13:47;;;;;;;4.95;1.23;;;13.10;99.90;;;;;;5108320;28;20584;-83
2022/05/27 04:16:13;;;;;;;12.18;1.83;;;12.10;99.90;;;;;;5106871;28;20051;-84
2022/05/27 04:18:39;;;;;;;11.73;2.60;;;12.20;99.90;;;;;;5105224;28;20040;-82
2022/05/27 04:21:05;;;;;;;11.13;1.60;;;12.00;99.90;;;;;;5107434;28;20043;-83
2022/05/27 04:23:30;;;;;;;8.55;1.65;;;12.30;99.90;;;;;;5106099;28;20050;-83
2022/05/27 04:25:56;;;;;;;10.32;1.65;;;13.00;99.90;;;;;;5108095;28;20260;-83
2022/05/27 04:28:22;;;;;;;10.88;1.20;;;12.00;99.90;;;;;;5104488;28;20557;-82
2022/05/27 04:30:48;;;;;;;15.80;1.83;;;12.00;99.90;;;;;;5105818;28;20047;-82
2022/05/27 04:33:14;;;;;;;14.93;1.60;;;12.50;99.90;;;;;;5106907;28;20039;-83
2022/05/27 04:35:40;;;;;;;14.38;1.50;;;12.20;99.90;;;;;;5104837;28;20043;-83
2022/05/27 04:38:07;;;;;;;10.40;2.17;;;11.90;99.90;;;;;;5107133;28;20035;-83
2022/05/27 04:40:33;;;;;;;10.48;1.60;;;11.90;99.90;;;;;;5106036;28;20047;-83
2022/05/27 04:42:59;;;;;;;9.48;2.20;;;11.90;99.90;;;;;;5107239;27;20130;-83
2022/05/27 04:45:25;;;;;;;6.50;1.73;;;12.80;99.90;;;;;;5105673;28;20119;-83
2022/05/27 04:47:50;;;;;;;10.52;1.75;;;12.20;99.90;;;;;;5107338;28;20036;-83
2022/05/27 04:50:18;;;;;;;7.65;1.65;;;12.00;99.90;;;;;;5106283;28;20050;-83
2022/05/27 04:52:44;;;;;;;10.95;2.00;;;12.10;99.90;;;;;;5104374;28;20054;-83
2022/05/27 04:55:13;;;;;;;11.65;1.55;;;12.10;99.90;;;;;;5107189;28;20071;-83
2022/05/27 04:57:51;;;;;;;11.82;1.70;;;12.20;99.90;;;;;;5105547;28;20051;-83
2022/05/27 05:00:20;;;;;;;12.05;1.50;;;13.20;99.90;;;;;;5107290;28;20051;-83
2022/05/27 05:02:46;;;;;;;14.20;2.05;;;12.40;99.90;;;;;;5105458;28;20043;-83
2022/05/27 05:05:17;;;;;;;7.43;1.13;;;12.30;99.90;;;;;;5106074;28;20138;-83
2022/05/27 05:07:46;;;;;;;6.88;1.70;;;13.30;99.90;;;;;;5105089;28;20058;-83
2022/05/27 05:10:16;;;;;;;7.63;2.70;;;12.40;99.90;;;;;;5105516;28;20089;-83
2022/05/27 05:12:43;;;;;;;7.10;1.40;;;12.40;99.90;;;;;;5106552;28;20526;-83
2022/05/27 05:15:10;;;;;;;6.80;1.27;;;13.30;99.90;;;;;;5105313;28;20036;-83
2022/05/27 05:17:36;;;;;;;11.07;1.42;;;12.40;99.90;;;;;;5106714;28;20514;-83
2022/05/27 05:20:04;;;;;;;7.88;1.75;;;13.80;99.90;;;;;;5105411;28;20062;-83
2022/05/27 05:22:31;;;;;;;14.35;1.80;;;12.50;99.90;;;;;;5104885;28;20040;-83
2022/05/27 05:24:56;;;;;;;7.45;1.60;;;13.30;99.90;;;;;;5106631;28;20032;-83
2022/05/27 05:27:27;;;;;;;12.25;1.83;;;13.00;99.90;;;;;;5104784;28;20466;-83
2022/05/27 05:29:54;;;;;;;9.98;1.27;;;13.10;99.90;;;;;;5105091;28;20518;-83
2022/05/27 05:32:21;;;;;;;14.73;2.08;;;12.50;99.90;;;;;;5105228;28;20095;-83
2022/05/27 05:34:46;;;;;;;9.35;2.03;;;13.30;99.90;;;;;;5088073;28;20039;-83
2022/05/27 05:37:12;;;;;;;11.27;1.55;;;12.40;99.90;;;;;;5089929;28;20059;-83
2022/05/27 05:39:38;;;;;;;13.63;1.40;;;12.40;99.90;;;;;;5112061;28;20032;-82
2022/05/27 05:42:06;;;;;;;11.27;2.20;;;13.60;99.90;;;;;;5109051;28;20075;-83
2022/05/27 05:44:33;;;;;;;12.25;1.38;;;12.30;99.90;;;;;;5107246;28;20040;-83
2022/05/27 05:47:00;;;;;;;15.23;1.70;;;13.40;99.90;;;;;;5107364;28;20039;-83
2022/05/27 05:49:26;;;;;;;7.03;1.42;;;12.60;99.90;;;;;;5102442;28;20427;-83
2022/05/27 05:51:54;;;;;;;8.48;1.67;;;12.70;99.90;;;;;;5104663;28;20059;-82
2022/05/27 05:54:21;;;;;;;12.45;2.58;;;13.40;99.90;;;;;;5105233;28;20039;-83
2022/05/27 05:56:47;;;;;;;11.85;1.63;;;13.00;99.90;;;;;;5105356;28;20136;-82
2022/05/27 05:59:14;;;;;;;10.68;2.33;;;13.30;99.90;;;;;;5105796;28;20051;-83
2022/05/27 06:01:44;;;;;;;9.18;1.92;;;13.00;99.90;;;;;;5103264;28;20423;-83
2022/05/27 06:04:10;;;;;;;11.10;1.55;;;13.10;99.90;;;;;;5105565;28;20501;-83
2022/05/27 06:06:37;;;;;;;12.73;1.90;;;13.20;99.90;;;;;;5103216;28;20077;-82
2022/05/27 06:09:04;;;;;;;5.05;1.50;;;13.30;99.90;;;;;;5104188;28;20404;-83
2022/05/27 06:11:30;;;;;;;10.80;1.88;;;14.50;99.90;;;;;;5104122;28;20043;-83
2022/05/27 06:13:56;;;;;;;10.25;1.58;;;13.50;99.90;;;;;;5069745;28;20127;-83
2022/05/27 06:16:21;;;;;;;18.20;2.05;;;13.60;99.90;;;;;;5107360;28;20122;-82
2022/05/27 06:18:48;;;;;;;9.85;1.77;;;13.70;99.90;;;;;;5106293;28;20036;-83
2022/05/27 06:21:13;;;;;;;17.83;1.92;;;13.70;99.90;;;;;;5106601;28;20047;-83
2022/05/27 06:23:39;;;;;;;19.25;2.08;;;13.80;99.90;;;;;;5087765;28;20054;-83
2022/05/27 06:26:10;;;;;;;8.30;1.67;;;13.80;99.90;;;;;;5107533;27;20044;-84
2022/05/27 06:34:24;;;;;;;10.07;2.08;;;14.60;99.90;;;;;;5110121;28;20157;-84
2022/05/27 06:37:06;;;;;;;9.88;1.77;;;14.00;99.90;;;;;;5109015;28;20094;-83
2022/05/27 06:39:34;;;;;;;12.38;2.95;;;14.10;99.90;;;;;;5107209;28;20044;-83
2022/05/27 06:42:01;;;;;;;14.95;2.17;;;15.20;99.90;;;;;;5106226;28;20043;-82
2022/05/27 06:44:32;;;;;;;10.15;1.48;;;14.30;99.90;;;;;;5106459;28;20586;-82
2022/05/27 06:46:58;;;;;;;8.88;1.70;;;14.10;99.90;;;;;;5107320;28;20083;-83
2022/05/27 06:49:24;;;;;;;9.70;2.25;;;14.20;99.90;;;;;;5106062;28;20074;-82
2022/05/27 06:51:50;;;;;;;9.65;1.77;;;14.20;99.90;;;;;;5106030;28;20040;-83
2022/05/27 06:54:22;;;;;;;7.88;1.92;;;14.40;99.90;;;;;;5106769;28;20058;-83
2022/05/27 06:56:52;;;;;;;12.65;1.73;;;14.30;99.90;;;;;;5105132;28;20050;-82
2022/05/27 06:59:19;;;;;;;16.45;1.88;;;14.30;99.90;;;;;;5106111;28;20632;-83
2022/05/27 07:01:45;;;;;;;7.43;1.50;;;14.30;99.90;;;;;;5109238;28;20040;-84
2022/05/27 07:04:13;;;;;;;12.00;1.80;;;14.30;99.90;;;;;;5111422;28;20055;-83
2022/05/27 07:06:43;;;;;;;10.15;2.00;;;14.30;99.90;;;;;;5091599;28;20039;-84
2022/05/27 07:09:21;;;;;;;14.70;2.13;;;14.20;99.90;;;;;;5113648;28;20560;-84
2022/05/27 07:11:49;;;;;;;10.23;1.48;;;14.30;99.90;;;;;;5111305;28;20043;-83
2022/05/27 07:14:16;;;;;;;16.92;2.33;;;15.30;99.90;;;;;;5115958;28;20041;-84
2022/05/27 07:16:43;;;;;;;12.45;1.90;;;14.40;99.90;;;;;;5095664;28;20055;-84
2022/05/27 07:19:09;;;;;;;13.15;2.15;;;14.40;99.90;;;;;;5108960;28;20462;-84
2022/05/27 07:21:39;;;;;;;11.88;1.73;;;14.50;99.90;;;;;;5109555;28;20066;-83
2022/05/27 07:24:10;;;;;;;6.45;1.52;;;14.60;99.90;;;;;;5107869;28;20407;-83
2022/05/27 07:26:38;;;;;;;12.27;2.25;;;14.80;99.90;;;;;;5107847;28;20059;-82
2022/05/27 07:29:05;;;;;;;14.23;2.40;;;14.90;99.90;;;;;;5091136;28;20035;-84
2022/05/27 07:31:34;;;;;;;9.00;1.60;;;15.00;99.90;;;;;;5109727;28;20048;-83
2022/05/27 07:34:00;;;;;;;9.18;1.77;;;15.00;99.90;;;;;;5110403;28;20062;-84
2022/05/27 07:36:26;;;;;;;10.32;1.92;;;14.90;99.90;;;;;;5108531;28;20071;-83
2022/05/27 07:38:52;;;;;;;8.15;1.63;;;14.80;99.90;;;;;;5110274;28;20124;-83
2022/05/27 07:41:22;;;;;;;11.65;2.22;;;14.80;99.90;;;;;;5109319;28;20322;-83
2022/05/27 07:43:49;;;;;;;9.18;1.50;;;14.80;99.90;;;;;;5108354;28;20043;-82
2022/05/27 07:46:16;;;;;;;9.98;2.00;;;14.90;99.90;;;;;;5108485;28;20075;-83
2022/05/27 07:48:45;;;;;;;8.90;1.40;;;15.00;99.90;;;;;;5107644;28;20112;-83
2022/05/27 07:51:11;;;;;;;7.32;1.48;;;15.10;99.90;;;;;;5108786;28;20461;-84
2022/05/27 07:53:38;;;;;;;6.50;1.70;;;15.20;99.90;;;;;;5108073;28;20086;-84
2022/05/27 07:56:09;;;;;;;7.78;1.60;;;15.20;99.90;;;;;;5109850;28;20040;-84
2022/05/27 07:58:35;;;;;;;8.07;1.50;;;15.10;99.90;;;;;;5107206;28;20044;-83
2022/05/27 08:01:01;;;;;;;10.77;1.88;;;15.00;99.90;;;;;;5109602;28;20131;-84
2022/05/27 08:03:28;;;;;;;13.45;1.88;;;15.00;99.90;;;;;;5108110;28;20177;-83
2022/05/27 08:05:55;;;;;;;9.52;1.67;;;14.90;99.90;;;;;;5089844;28;20054;-83
2022/05/27 08:08:22;;;;;;;11.30;2.25;;;15.00;99.90;;;;;;5091281;28;20043;-84
2022/05/27 08:10:53;;;;;;;7.30;1.25;;;15.20;99.90;;;;;;5107715;28;20047;-85
2022/05/27 08:13:23;;;;;;;12.30;1.88;;;15.10;99.90;;;;;;5090400;28;20039;-84
2022/05/27 08:15:51;;;;;;;6.07;1.50;;;15.20;99.90;;;;;;5107099;28;20047;-84
2022/05/27 08:18:17;;;;;;;10.57;2.08;;;15.30;99.90;;;;;;5107521;28;20043;-84
2022/05/27 08:20:50;;;;;;;6.75;1.48;;;15.30;99.90;;;;;;5107704;28;20039;-85
2022/05/27 08:23:19;;;;;;;12.90;1.45;;;15.30;99.90;;;;;;5107783;28;20058;-85
2022/05/27 08:25:44;;;;;;;11.10;1.23;;;14.60;99.90;;;;;;5109471;28;20476;-85
2022/05/27 08:28:10;;;;;;;9.00;1.67;;;15.80;99.90;;;;;;5089764;28;20054;-85
2022/05/27 08:30:38;;;;;;;20.85;1.85;;;15.80;99.90;;;;;;5107672;28;20420;-84
2022/05/27 08:33:04;;;;;;;10.70;1.50;;;16.00;99.90;;;;;;5107778;28;20051;-84
2022/05/27 08:38:22;;;;;;;11.32;1.60;;;16.00;99.90;;;;;;5108048;28;20051;-83
2022/05/27 08:41:15;;;;;;;10.90;1.40;;;16.20;99.90;;;;;;5107338;28;20128;-83
2022/05/27 08:43:59;;;;;;;12.63;1.90;;;16.10;99.10;;;;;;5113493;28;20044;-83
2022/05/27 08:46:37;;;;;;;3.55;0.80;;;16.70;99.90;;;;;;5117596;28;20061;-84
2022/05/27 08:49:08;;;;;;;10.75;1.65;;;16.30;99.90;;;;;;5113548;28;20043;-85
2022/05/27 08:51:52;;;;;;;12.32;1.67;;;16.40;99.90;;;;;;5111791;28;20048;-84
2022/05/27 08:54:35;;;;;;;12.05;1.83;;;16.40;99.00;;;;;;5108803;28;20044;-84
2022/05/27 08:59:53;;;;;;;7.22;1.45;;;16.00;99.90;;;;;;5110229;28;20071;-83
2022/05/27 09:02:27;;;;;;;12.23;2.17;;;16.20;99.90;;;;;;5113083;28;20069;-83
2022/05/27 09:05:19;;;;;;;7.43;1.55;;;16.40;99.90;;;;;;5092945;28;20068;-84
2022/05/27 09:08:07;;;;;;;5.93;1.73;;;16.30;99.60;;;;;;5108237;28;20420;-83
2022/05/27 09:11:07;;;;;;;12.60;1.80;;;16.10;99.90;;;;;;5106329;28;20134;-85
2022/05/27 09:13:58;;;;;;;7.13;1.40;;;16.00;99.10;;;;;;5107144;28;20114;-85
2022/05/27 09:16:38;;;;;;;5.80;1.58;;;15.80;98.40;;;;;;5104788;28;20496;-85
2022/05/27 09:19:25;;;;;;;11.63;1.90;;;15.70;99.90;;;;;;5105518;28;20046;-85
2022/05/27 09:22:27;;;;;;;7.45;1.55;;;15.80;99.90;;;;;;5107263;28;20051;-85
2022/05/27 09:25:24;;;;;;;22.67;2.17;;;16.00;99.80;;;;;;5106017;28;20050;-85
2022/05/27 09:28:15;;;;;;;20.50;2.22;;;16.10;99.70;;;;;;5104888;28;20288;-83
2022/05/27 09:30:42;;;;;;;7.40;1.60;;;16.00;99.90;;;;;;5050075;28;20143;-84
2022/05/27 09:33:11;;;;;;;8.02;1.70;;;16.00;99.90;;;;;;5104448;28;20039;-83
2022/05/27 09:35:48;;;;;;;8.65;2.03;;;16.10;99.90;;;;;;5104261;28;20408;-83
2022/05/27 09:38:28;;;;;;;10.10;2.03;;;16.80;99.90;;;;;;5106180;28;20043;-84
2022/05/27 09:41:01;;;;;;;9.70;1.90;;;16.50;99.80;;;;;;5086502;28;20035;-84
2022/05/27 09:43:40;;;;;;;8.85;1.90;;;16.70;99.90;;;;;;5106847;28;20404;-84
2022/05/27 09:46:11;;;;;;;6.65;1.70;;;16.80;99.70;;;;;;5105092;28;20047;-84
2022/05/27 09:48:37;;;;;;;10.52;1.63;;;16.70;96.30;;;;;;5103844;28;20047;-85
2022/05/27 09:51:06;;;;;;;9.25;1.90;;;17.20;99.20;;;;;;5087469;28;20549;-84
2022/05/27 09:53:38;;;;;;;11.10;1.98;;;17.10;98.10;;;;;;5102898;28;20100;-84
2022/05/27 09:56:08;;;;;;;15.80;2.30;;;17.00;98.20;;;;;;5088032;28;20415;-84
2022/05/27 09:58:40;;;;;;;7.40;1.67;;;16.90;98.70;;;;;;5086630;28;20051;-84
2022/05/27 10:01:22;;;;;;;8.48;2.00;;;16.80;96.40;;;;;;5103967;28;20083;-84
2022/05/27 10:03:58;;;;;;;7.03;2.17;;;16.50;96.70;;;;;;5105130;28;20588;-83
2022/05/27 10:06:28;;;;;;;7.07;1.73;;;16.50;98.00;;;;;;5104403;28;20051;-85
2022/05/27 10:08:57;;;;;;;11.75;2.28;;;16.60;98.50;;;;;;5106286;28;20040;-85
2022/05/27 10:11:26;;;;;;;11.57;2.20;;;16.60;98.20;;;;;;5103575;28;20429;-85
2022/05/27 10:14:10;;;;;;;13.02;2.03;;;16.70;98.30;;;;;;5104057;28;20036;-84
2022/05/27 10:16:40;;;;;;;11.23;1.70;;;16.80;94.50;;;;;;5104448;28;20048;-84
2022/05/27 10:19:23;;;;;;;14.93;2.05;;;16.80;97.60;;;;;;5103941;28;20027;-84
2022/05/27 10:21:59;;;;;;;14.10;1.80;;;16.80;97.20;;;;;;5091364;28;20050;-85
2022/05/27 10:24:32;;;;;;;7.18;1.40;;;16.70;96.90;;;;;;5107887;28;20047;-84
2022/05/27 10:27:17;;;;;;;7.82;1.83;;;17.40;98.50;;;;;;5108907;28;20039;-84
2022/05/27 10:30:08;;;;;;;8.93;1.42;;;16.80;96.20;;;;;;5107035;28;20052;-84
2022/05/27 10:32:43;;;;;;;14.75;2.00;;;16.70;94.30;;;;;;5104083;28;20032;-84
2022/05/27 10:35:30;;;;;;;9.88;1.45;;;16.70;97.80;;;;;;5104321;28;20436;-84
2022/05/27 10:38:12;;;;;;;8.20;1.80;;;16.30;97.20;;;;;;5107632;28;20436;-84
2022/05/27 10:40:46;;;;;;;9.25;2.00;;;16.80;97.80;;;;;;5108190;28;20063;-84
2022/05/27 10:43:35;;;;;;;8.02;1.95;;;16.70;98.10;;;;;;5109895;28;20085;-85
2022/05/27 10:46:05;;;;;;;8.35;2.05;;;16.80;97.00;;;;;;5107974;28;20043;-84
2022/05/27 10:48:53;;;;;;;11.98;1.95;;;17.10;98.30;;;;;;5109083;28;20047;-84
2022/05/27 10:51:33;;;;;;;9.88;1.48;;;17.40;96.70;;;;;;5108443;28;20306;-84
2022/05/27 10:54:31;;;;;;;9.15;2.28;;;17.40;95.80;;;;;;5106465;28;20055;-84
2022/05/27 11:03:07;;;;;;;8.77;2.22;;;16.60;96.90;;;;;;5107306;28;20043;-85
2022/05/27 11:06:06;;;;;;;7.47;1.70;;;16.70;98.10;;;;;;5106792;28;20142;-84
2022/05/27 11:08:33;;;;;;;8.90;1.83;;;16.70;96.90;;;;;;5069835;28;20104;-84
2022/05/27 11:11:17;;;;;;;8.85;2.25;;;16.80;98.30;;;;;;5106125;28;20039;-84
2022/05/27 11:17:03;;;;;;;6.40;1.83;;;16.60;97.10;;;;;;5107435;28;20443;-84
2022/05/27 11:20:00;;;;;;;6.82;1.58;;;16.50;96.60;;;;;;5089731;28;20126;-84
2022/05/27 11:22:35;;;;;;;7.97;1.80;;;16.50;95.80;;;;;;5107261;28;20055;-84
2022/05/27 11:25:15;;;;;;;11.57;2.28;;;16.50;98.00;;;;;;5107698;28;20408;-85
2022/05/27 11:28:17;;;;;;;9.75;2.03;;;16.40;97.60;;;;;;5108077;28;20043;-85
2022/05/27 11:31:01;;;;;;;13.18;2.28;;;16.40;97.40;;;;;;5116309;28;20048;-85
2022/05/27 11:33:48;;;;;;;9.70;2.00;;;16.50;98.10;;;;;;5109812;28;20039;-86
2022/05/27 11:36:32;;;;;;;12.60;2.25;;;16.60;97.10;;;;;;5108282;28;20509;-83
2022/05/27 11:39:24;;;;;;;9.00;1.58;;;16.80;96.40;;;;;;5111466;28;20483;-84
2022/05/27 11:42:38;;;;;;;8.45;1.92;;;16.80;94.60;;;;;;5108713;28;20453;-84
2022/05/27 11:45:21;;;;;;;14.80;2.25;;;16.70;95.00;;;;;;5045833;28;20060;-83
2022/05/27 11:48:08;;;;;;;17.05;1.65;;;16.60;96.40;;;;;;5107290;28;20047;-84
2022/05/27 11:51:05;;;;;;;11.05;2.15;;;16.50;96.80;;;;;;5108986;28;20039;-84
2022/05/27 11:53:55;;;;;;;15.35;2.28;;;16.40;96.90;;;;;;5107294;28;20052;-83
2022/05/27 11:56:48;;;;;;;14.30;2.28;;;16.40;98.50;;;;;;5110506;28;20501;-83
2022/05/27 11:59:23;;;;;;;9.90;1.80;;;16.30;98.60;;;;;;5113761;28;20118;-82
2022/05/27 12:01:55;;;;;;;6.22;1.20;;;16.20;97.80;;;;;;5114881;28;20046;-85
2022/05/27 12:04:30;;;;;;;9.93;1.90;;;16.20;98.60;;;;;;5116856;28;20126;-84
2022/05/27 12:07:17;;;;;;;7.57;1.92;;;16.60;98.90;;;;;;5093693;28;20083;-85
2022/05/27 12:10:00;;;;;;;8.77;1.60;;;16.30;97.70;;;;;;5107934;28;20051;-84
2022/05/27 12:12:34;;;;;;;11.77;2.13;;;16.10;96.50;;;;;;5108406;28;20043;-84
2022/05/27 12:15:04;;;;;;;9.23;1.45;;;16.30;97.70;;;;;;5107070;28;20043;-84
2022/05/27 12:17:51;;;;;;;7.57;1.42;;;16.50;97.20;;;;;;5092292;28;20099;-84
2022/05/27 12:20:38;;;;;;;8.88;1.50;;;17.30;95.80;;;;;;5107897;28;20074;-83
2022/05/27 12:23:10;;;;;;;12.48;2.30;;;17.20;95.90;;;;;;5108492;28;20392;-84
2022/05/27 12:25:48;;;;;;;9.02;1.58;;;16.40;97.00;;;;;;5110627;28;20047;-84
2022/05/27 12:28:16;;;;;;;14.27;1.70;;;16.50;97.70;;;;;;5089789;28;20043;-84
2022/05/27 12:30:43;;;;;;;8.95;1.80;;;16.60;97.60;;;;;;5108408;28;20502;-85
2022/05/27 12:33:19;;;;;;;11.63;2.13;;;16.60;97.30;;;;;;5107323;28;20051;-84
2022/05/27 12:36:01;;;;;;;9.15;2.08;;;16.50;96.60;;;;;;5107041;28;20054;-84
2022/05/27 12:38:30;;;;;;;9.30;1.52;;;16.70;95.90;;;;;;5109599;28;20036;-85
2022/05/27 12:41:06;;;;;;;9.55;1.77;;;16.60;96.40;;;;;;5108047;28;20043;-84
2022/05/27 12:43:54;;;;;;;12.52;2.03;;;16.50;96.60;;;;;;5087342;28;20543;-84
2022/05/27 12:46:29;;;;;;;11.50;2.22;;;16.60;97.70;;;;;;5088341;28;20054;-84
2022/05/27 12:49:17;;;;;;;13.02;2.05;;;16.70;97.40;;;;;;5086867;28;20118;-84
2022/05/27 12:51:46;;;;;;;9.73;1.75;;;16.70;96.00;;;;;;5085752;28;20048;-84
2022/05/27 12:54:43;;;;;;;12.65;2.00;;;16.80;95.80;;;;;;5084388;28;20040;-84
2022/05/27 13:03:38;;;;;;;6.82;1.27;;;17.30;95.40;;;;;;5086032;28;20059;-86
2022/05/27 13:06:04;;;;;;;9.32;1.90;;;17.50;93.00;;;;;;5045037;28;20053;-84
2022/05/27 13:08:42;;;;;;;12.60;1.58;;;17.30;94.50;;;;;;5028596;28;20052;-84
2022/05/27 13:11:23;;;;;;;9.27;1.95;;;17.20;93.30;;;;;;5045024;28;20055;-84
2022/05/27 13:14:07;;;;;;;9.32;1.42;;;17.40;93.20;;;;;;5044245;28;20073;-85
2022/05/27 13:16:48;;;;;;;8.07;1.33;;;17.60;93.20;;;;;;5027850;28;20080;-84
2022/05/27 13:19:22;;;;;;;8.98;1.38;;;18.00;92.30;;;;;;5027440;28;20067;-85
2022/05/27 13:21:55;;;;;;;10.48;1.60;;;18.00;87.50;;;;;;5045615;28;20086;-84
2022/05/27 13:24:24;;;;;;;9.15;1.80;;;18.20;84.20;;;;;;5044050;28;20076;-85
2022/05/27 13:26:59;;;;;;;9.32;1.92;;;18.00;89.10;;;;;;5027927;28;20094;-85
2022/05/27 13:29:39;;;;;;;9.80;1.58;;;17.90;90.70;;;;;;5044693;28;20439;-84
2022/05/27 13:32:11;;;;;;;12.18;1.95;;;17.60;91.80;;;;;;5043325;28;20106;-84
2022/05/27 13:34:45;;;;;;;8.73;1.42;;;17.30;93.60;;;;;;5033556;28;20041;-84
2022/05/27 13:37:39;;;;;;;10.48;1.83;;;17.50;95.10;;;;;;5031228;28;20074;-84
2022/05/27 13:40:13;;;;;;;8.07;1.77;;;17.30;96.10;;;;;;5043877;28;20045;-85
2022/05/27 13:42:48;;;;;;;11.82;1.85;;;17.40;95.60;;;;;;5046110;28;20037;-85
2022/05/27 13:45:30;;;;;;;7.68;1.40;;;17.40;93.50;;;;;;5043214;28;20056;-85
2022/05/27 13:48:02;;;;;;;6.95;1.42;;;17.20;92.40;;;;;;5043940;28;20528;-86
2022/05/27 13:50:41;;;;;;;4.22;1.15;;;17.00;93.50;;;;;;5043805;28;20095;-85